Tiempo atmosférico en la estación meteorológica de Fuente De Cantos, Badajoz (602 m.)

Fecha
DESCASC
Temp. máxima en grados centígrados (hora)
DESCASC
Temp. mínima en grados centígrados (hora)
DESCASC
Temp. media en grados centígrados
DESCASC
Racha de viento máxima en m/sg (hora)
DESCASC
Velocidad máxima media en intervalos de 10 minutos(hora)
DESCASC
Precipitaciones diarias en mm
DESCASC
Precipitaciones de 00:00 a 06:00 en mm
DESCASC
Precipitaciones de 06:00 a 12:00 en mm
DESCASC
Precipitaciones de 12:00 a 18:00 en mm
DESCASC
Precipitaciones de 18:00 a 24:00 en mm
DESCASC
17-08-2017 37.3 (18:00) 22.1 (03:10) 29.7 8.33 (16:00) 6.67 (20:40) 0 0 0 0 0
16-08-2017 33.6 (17:40) 16 (08:00) 24.8 7.78 (23:40) 6.11 (23:40) 0 0 0 0 0
15-08-2017 35 (17:20) 20.8 (00:00) 27.9 10.83 (18:40) 7.22 (20:50) 0 0 0 0 0
14-08-2017 35.3 (18:10) 19.2 (07:20) 27.3 11.67 (10:30) 8.89 (11:00) 0 0 0 0 0
13-08-2017 35.1 (18:10) 20.2 (00:00) 27.6 10.28 (12:00) 6.94 (06:20) 0 0 0 0 0
12-08-2017 35.3 (18:50) 20.1 (00:00) 27.7 8.89 (13:40) 6.67 (08:40) 0 0 0 0 0
11-08-2017 33.6 (18:10) 17 (00:00) 25.3 10 (20:30) 7.78 (20:30) 0 0 0 0 0
10-08-2017 30.7 (18:50) 14.4 (00:00) 22.6 13.06 (09:40) 10.56 (10:10) 0 0 0 0 0
09-08-2017 29.6 (17:00) 13.3 (00:00) 21.5 13.89 (18:50) 7.78 (19:20) 0 0 0 0 0
08-08-2017 30.2 (17:00) 12.8 (00:00) 21.5 10.28 (17:20) 6.67 (17:20) 0 0 0 0 0
07-08-2017 37 (15:40) 20.4 (00:00) 28.7 15 (17:10) 8.61 (17:40) 0 0 0 0 0
06-08-2017 37.3 (17:40) 18.7 (00:00) 28 11.39 (15:20) 6.39 (16:50) 0 0 0 0 0
05-08-2017 38.2 (16:10) 23.1 (00:00) 30.7 12.5 (17:30) 7.78 (20:30) 0 0 0 0 0
04-08-2017 38.5 (17:20) 22.7 (00:00) 30.6 9.72 (16:20) 5.28 (20:20) 0 0 0 0 0
03-08-2017 36.3 (17:20) 19.7 (00:00) 28 10 (18:10) 6.39 (20:00) 0 0 0 0 0
02-08-2017 34.1 (18:40) 16.1 (00:00) 25.1 7.5 (21:20) 6.11 (21:20) 0 0 0 0 0
01-08-2017 30.3 (18:20) 15.9 (00:00) 23.1 8.89 (17:10) 6.39 (21:20) 0 0 0 0 0
31-07-2017 32.8 (17:10) 16.8 (00:00) 24.8 12.5 (16:50) 8.89 (18:40) 0 0 0 0 0
30-07-2017 36 (16:20) 21.2 (00:00) 28.6 11.39 (18:00) 6.39 (21:30) 0 0 0 0 0
29-07-2017 36.9 (16:50) 20.3 (00:00) 28.6 8.89 (18:30) 5.83 (19:50) 0 0 0 0 0
28-07-2017 37.5 (17:20) 18.4 (00:00) 27.9 10 (19:40) 6.94 (19:40) 0 0 0 0 0
27-07-2017 36.4 (16:00) 22.5 (00:00) 29.5 12.78 (17:40) 8.33 (17:40) 0 0 0 0 0
26-07-2017 35.7 (18:20) 23 (00:00) 29.4 10.28 (17:10) 5.83 (17:10) 0 0 0 0 0
25-07-2017 35.9 (18:00) 19.8 (00:00) 27.9 9.72 (18:00) 7.22 (18:00) 0 0 0 0 0
24-07-2017 34.2 (17:30) 18.2 (00:00) 26.2 10.56 (18:00) 7.22 (18:30) 0 0 0 0 0
23-07-2017 34.4 (17:50) 16.3 (00:00) 25.4 10 (20:10) 7.5 (20:30) 0 0 0 0 0
22-07-2017 32.3 (18:50) 14 (00:00) 23.1 8.89 (20:20) 6.39 (20:40) 0 0 0 0 0

Gráficas

Temp. máximas Temp. mínimas Temp. medias Precipitaciones Rachas de viento máximas Velocidades máximas media en intervalos de 10 minutos

Datos horarios

Fecha y hora oficial Temperatura (ºC) Velocidad del viento (km/h) Dirección del viento Racha (km/h) Dirección de racha Precipitación (mm) Presión (hPa) Tendencia (hPa) Humedad (%)
2017-08-20 23:00:00 29.6 12 Sudoeste 23 Sudoeste 0 -- -- 44
2017-08-20 22:00:00 31.6 14 Sur 23 Sudeste 0 -- -- 31
2017-08-20 21:00:00 34.4 17 Sudeste 27 Sur 0 -- -- 26
2017-08-20 20:00:00 36.6 16 Sudeste 26 Sur 0 -- -- 24
2017-08-20 19:00:00 38.1 8 Este 23 Sudeste 0 -- -- 19
2017-08-20 18:00:00 38.1 15 Sudeste 25 Este 0 -- -- 20
2017-08-20 17:00:00 38.2 7 Sudeste 24 Este 0 -- -- 19
2017-08-20 16:00:00 37.9 14 Este 28 Este 0 -- -- 20
2017-08-20 15:00:00 37.3 17 Este 27 Este 0 -- -- 22
2017-08-20 14:00:00 36.5 17 Este 28 Este 0 -- -- 22
2017-08-20 13:00:00 35.4 12 Sudeste 24 Este 0 -- -- 23
2017-08-20 12:00:00 33.8 12 Sudeste 19 Sudeste 0 -- -- 29
2017-08-20 11:00:00 30 15 Este 23 Este 0 -- -- 34
2017-08-20 10:00:00 26.1 19 Este 25 Este 0 -- -- 41
2017-08-20 09:00:00 24 16 Sudeste 31 Este 0 -- -- 44
2017-08-20 08:00:00 23.6 19 Este 30 Este 0 -- -- 45
2017-08-20 07:00:00 24.8 18 Este 22 Este 0 -- -- 36
2017-08-20 06:00:00 25.7 16 Este 22 Este 0 -- -- 31
2017-08-20 05:00:00 26.9 2 Oeste 4 Noroeste 0 -- -- 30
2017-08-20 04:00:00 28.1 2 Noroeste 4 Oeste 0 -- -- 28
2017-08-20 03:00:00 28.4 3 Sudoeste 6 Oeste 0 -- -- 28
2017-08-20 02:00:00 29.2 2 Oeste 4 Noroeste 0 -- -- 27
2017-08-20 01:00:00 28.6 4 Sur 11 Sudeste 0 -- -- 28
2017-08-20 00:00:00 29.5 4 Sur 13 Norte 0 -- -- 27
2017-08-19 23:00:00 30.2 13 Norte 18 Norte 0 -- -- 26
2017-08-19 22:00:00 31.2 15 Norte 22 Norte 0 -- -- 25
2017-08-19 21:00:00 34.1 19 Norte 28 Norte 0 -- -- 22
2017-08-19 20:00:00 36.1 19 Noroeste 29 Noroeste 0 -- -- 21
2017-08-19 19:00:00 37.3 15 Noroeste 31 Noroeste 0 -- -- 19
2017-08-19 18:00:00 37.5 19 Noroeste 33 Oeste 0 -- -- 18
2017-08-19 17:00:00 37.5 9 Oeste 30 Noroeste 0 -- -- 19
2017-08-19 16:00:00 37.5 13 Sudoeste 29 Sudoeste 0 -- -- 21
2017-08-19 15:00:00 36 14 Oeste 22 Oeste 0 -- -- 22
2017-08-19 14:00:00 34.9 9 Oeste 20 Oeste 0 -- -- 24
2017-08-19 13:00:00 33 9 Norte 17 Nordeste 0 -- -- 27
2017-08-19 12:00:00 30 8 Norte 14 Norte 0 -- -- 38
2017-08-19 11:00:00 26.7 4 Noroeste 8 Noroeste 0 -- -- 44
2017-08-19 10:00:00 24 4 Noroeste 7 Noroeste 0 -- -- 51
2017-08-19 09:00:00 22.2 3 Oeste 6 Noroeste 0 -- -- 53
2017-08-19 08:00:00 21.6 3 Oeste 5 Sudoeste 0 -- -- 54
2017-08-19 07:00:00 21.3 5 Sudoeste 8 Oeste 0 -- -- 55
2017-08-19 06:00:00 21.9 7 Oeste 8 Oeste 0 -- -- 52
2017-08-19 05:00:00 22.4 6 Sudoeste 9 Sudoeste 0 -- -- 49
2017-08-19 04:00:00 23.2 8 Sudoeste 10 Sudoeste 0 -- -- 46
2017-08-19 03:00:00 23.5 9 Sudoeste 10 Sudoeste 0 -- -- 45
2017-08-19 02:00:00 24.5 5 Sudoeste 15 Oeste 0 -- -- 42
2017-08-19 01:00:00 25.6 12 Oeste 14 Oeste 0 -- -- 37
2017-08-19 00:00:00 26.7 11 Noroeste 23 Noroeste 0 -- -- 31
2017-08-18 23:00:00 29.7 19 Noroeste 26 Noroeste 0 -- -- 26
2017-08-18 22:00:00 30.7 14 Noroeste 22 Noroeste 0 -- -- 25
2017-08-18 21:00:00 33 20 Noroeste 36 Noroeste 0 -- -- 23
2017-08-18 20:00:00 34.9 26 Noroeste 37 Noroeste 0 -- -- 23
2017-08-18 19:00:00 36 26 Norte 37 Norte 0 -- -- 22
2017-08-18 18:00:00 36.6 26 Norte 48 Noroeste 0 -- -- 22
2017-08-18 17:00:00 36.9 15 Oeste 33 Noroeste 0 -- -- 21
2017-08-18 16:00:00 36.5 21 Oeste 36 Noroeste 0 -- -- 22
2017-08-18 15:00:00 35.9 15 Oeste 30 Noroeste 0 -- -- 23
2017-08-18 14:00:00 35.1 12 Noroeste 24 Oeste 0 -- -- 22
2017-08-18 13:00:00 33.2 7 Oeste 17 Oeste 0 -- -- 27
2017-08-18 12:00:00 30.1 6 Noroeste 18 Noroeste 0 -- -- 34
2017-08-18 11:00:00 28.1 7 Noroeste 11 Noroeste 0 -- -- 38
2017-08-18 10:00:00 25.2 4 Oeste 6 Noroeste 0 -- -- 42
2017-08-18 09:00:00 23.4 4 Noroeste 8 Noroeste 0 -- -- 45
2017-08-18 08:00:00 23.4 5 Noroeste 7 Noroeste 0 -- -- 44
2017-08-18 07:00:00 24.9 3 Sudoeste 6 Sudoeste 0 -- -- 42
2017-08-18 06:00:00 24.6 5 Sur 8 Sudoeste 0 -- -- 42
2017-08-18 05:00:00 24.4 4 Sur 8 Sudoeste 0 -- -- 42
2017-08-18 04:00:00 24.5 4 Sudoeste 10 Sudoeste 0 -- -- 42
2017-08-18 03:00:00 24.6 8 Sudoeste 11 Sudoeste 0 -- -- 38
2017-08-18 02:00:00 25.7 6 Sudoeste 10 Noroeste 0 -- -- 32
2017-08-18 01:00:00 26.6 6 Noroeste 14 Noroeste 0 -- -- 30
2017-08-18 00:00:00 29 5 Sur 10 Norte 0 -- -- 27
2017-08-17 23:00:00 29.7 9 Norte 15 Norte 0 -- -- 26
2017-08-17 22:00:00 30.8 14 Norte 25 Noroeste 0 -- -- 25
2017-08-17 21:00:00 33.4 19 Norte 29 Norte 0 -- -- 23
2017-08-17 20:00:00 35.9 15 Noroeste 27 Noroeste 0 -- -- 20
2017-08-17 19:00:00 37 15 Oeste 27 Sudoeste 0 -- -- 18
2017-08-17 18:00:00 37.3 14 Noroeste 26 Oeste 0 -- -- 17
2017-08-17 17:00:00 36.7 6 Oeste 23 Norte 0 -- -- 17
2017-08-17 16:00:00 35.9 17 Noroeste 30 Oeste 0 -- -- 18
2017-08-17 15:00:00 34.8 8 Norte 24 Noroeste 0 -- -- 19
2017-08-17 14:00:00 34.2 9 Noroeste 18 Oeste 0 -- -- 19
2017-08-17 13:00:00 32.7 8 Noroeste 15 Noroeste 0 -- -- 21
2017-08-17 12:00:00 30.9 6 Norte 10 Norte 0 -- -- 27
2017-08-17 11:00:00 27.4 4 Norte 8 Noroeste 0 -- -- 35
2017-08-17 10:00:00 26.1 0 Calma 4 Norte 0 -- -- 38
2017-08-17 09:00:00 23.7 2 Sudoeste 4 Sudoeste 0 -- -- 41
2017-08-17 08:00:00 22.1 2 Oeste 4 Oeste 0 -- -- 45
2017-08-17 07:00:00 22.5 3 Oeste 6 Oeste 0 -- -- 43
2017-08-17 06:00:00 22.9 4 Sudoeste 6 Sudoeste 0 -- -- 41
2017-08-17 05:00:00 22.8 4 Sudoeste 8 Sudoeste 0 -- -- 39
2017-08-17 04:00:00 23 5 Sudoeste 8 Sur 0 -- -- 36
2017-08-17 03:00:00 22.3 6 Sur 9 Oeste 0 -- -- 35
2017-08-17 02:00:00 24.1 5 Sudoeste 7 Oeste 0 -- -- 32
2017-08-17 01:00:00 24 3 Sudoeste 23 Norte 0 -- -- 30
2017-08-17 00:00:00 25.5 17 Noroeste 28 Noroeste 0 -- -- 28
2017-08-16 23:00:00 27.3 17 Norte 21 Norte 0 -- -- 21
2017-08-16 22:00:00 28.3 14 Norte 19 Norte 0 -- -- 22
2017-08-16 21:00:00 30.9 19 Norte 26 Norte 0 -- -- 19
2017-08-16 20:00:00 33 17 Noroeste 27 Noroeste 0 -- -- 18
2017-08-16 19:00:00 33.3 14 Noroeste 25 Norte 0 -- -- 19
2017-08-16 18:00:00 33.3 14 Norte 26 Noroeste 0 -- -- 18
2017-08-16 17:00:00 33 14 Noroeste 25 Norte 0 -- -- 16
2017-08-16 16:00:00 32.6 15 Norte 28 Oeste 0 -- -- 18
2017-08-16 15:00:00 31.8 10 Noroeste 22 Noroeste 0 -- -- 21
2017-08-16 14:00:00 30.5 12 Noroeste 20 Noroeste 0 -- -- 24
2017-08-16 13:00:00 28.5 7 Norte 21 Noroeste 0 -- -- 30
2017-08-16 12:00:00 26.8 8 Norte 16 Noroeste 0 -- -- 32
2017-08-16 11:00:00 24.5 5 Sudeste 9 Sudeste 0 -- -- 38
2017-08-16 10:00:00 20.1 4 Sur 8 Sur 0 -- -- 53
2017-08-16 09:00:00 17.4 6 Noroeste 9 Norte 0 -- -- 62
2017-08-16 08:00:00 16 5 Noroeste 10 Oeste 0 -- -- 65
2017-08-16 07:00:00 17.6 9 Noroeste 11 Noroeste 0 -- -- 53
2017-08-16 06:00:00 18.7 5 Sur 9 Sur 0 -- -- 52
2017-08-16 05:00:00 18.8 7 Sudoeste 12 Noroeste 0 -- -- 51
2017-08-16 04:00:00 19.1 10 Oeste 13 Oeste 0 -- -- 48
2017-08-16 03:00:00 20.4 11 Oeste 13 Oeste 0 -- -- 45
2017-08-16 02:00:00 21.5 12 Oeste 17 Noroeste 0 -- -- 39
2017-08-16 01:00:00 22.8 13 Noroeste 24 Noroeste 0 -- -- 34
2017-08-16 00:00:00 24.6 20 Noroeste 24 Noroeste 0 -- -- 29
2017-08-15 23:00:00 25.7 13 Noroeste 18 Noroeste 0 -- -- 29
2017-08-15 22:00:00 28 13 Noroeste 27 Oeste 0 -- -- 26
2017-08-15 21:00:00 31 23 Oeste 35 Oeste 0 -- -- 22
2017-08-15 20:00:00 33.3 22 Noroeste 35 Noroeste 0 -- -- 21
2017-08-15 19:00:00 34.3 21 Noroeste 39 Noroeste 0 -- -- 19
2017-08-15 18:00:00 34.9 19 Noroeste 32 Oeste 0 -- -- 19
2017-08-15 17:00:00 34.7 19 Noroeste 33 Oeste 0 -- -- 18
2017-08-15 16:00:00 34.4 21 Oeste 32 Oeste 0 -- -- 17
2017-08-15 15:00:00 33.7 19 Oeste 31 Noroeste 0 -- -- 19
2017-08-15 14:00:00 33 13 Noroeste 24 Oeste 0 -- -- 20
2017-08-15 13:00:00 32 12 Noroeste 21 Oeste 0 -- -- 19
2017-08-15 12:00:00 30 9 Oeste 17 Oeste 0 -- -- 23
2017-08-15 11:00:00 27.8 7 Oeste 12 Oeste 0 -- -- 28
2017-08-15 10:00:00 24.9 6 Oeste 9 Oeste 0 -- -- 40
2017-08-15 09:00:00 22.2 4 Sur 6 Sudoeste 0 -- -- 50
2017-08-15 08:00:00 20.8 4 Sudoeste 8 Oeste 0 -- -- 54
2017-08-15 07:00:00 20.9 5 Sudoeste 8 Oeste 0 -- -- 54
2017-08-15 06:00:00 21.7 5 Oeste 8 Sur 0 -- -- 52
2017-08-15 05:00:00 21.9 4 Oeste 8 Sudoeste 0 -- -- 51
2017-08-15 04:00:00 22.5 7 Sudoeste 13 Sudoeste 0 -- -- 49
2017-08-15 03:00:00 22.5 10 Sudoeste 14 Sudoeste 0 -- -- 48
2017-08-15 02:00:00 23.2 13 Sudoeste 17 Oeste 0 -- -- 44
2017-08-15 01:00:00 24.3 14 Oeste 19 Oeste 0 -- -- 41
2017-08-15 00:00:00 25.8 14 Oeste 25 Oeste 0 -- -- 36
2017-08-14 23:00:00 27.5 19 Oeste 28 Oeste 0 -- -- 32
2017-08-14 22:00:00 28.8 15 Oeste 25 Oeste 0 -- -- 30
2017-08-14 21:00:00 31.2 20 Oeste 33 Noroeste 0 -- -- 29
2017-08-14 20:00:00 33.6 16 Oeste 27 Oeste 0 -- -- 26
2017-08-14 19:00:00 34.7 11 Sudoeste 31 Oeste 0 -- -- 24
2017-08-14 18:00:00 35 14 Sudeste 30 Sur 0 -- -- 24
2017-08-14 17:00:00 34.9 12 Sur 24 Sur 0 -- -- 23
2017-08-14 16:00:00 34.5 6 Noroeste 24 Sur 0 -- -- 24
2017-08-14 15:00:00 33.5 12 Sudeste 29 Sur 0 -- -- 25
2017-08-14 14:00:00 33 17 Sur 29 Sudeste 0 -- -- 25
2017-08-14 13:00:00 31.4 18 Sur 40 Sudeste 0 -- -- 25
2017-08-14 12:00:00 30.5 23 Sudeste 42 Sudeste 0 -- -- 25
2017-08-14 11:00:00 28.3 32 Sudeste 42 Sudeste 0 -- -- 28
2017-08-14 10:00:00 26.4 25 Sudeste 36 Sudeste 0 -- -- 34
2017-08-14 09:00:00 23.1 26 Sudeste 34 Sudeste 0 -- -- 46
2017-08-14 08:00:00 19.7 12 Sudeste 26 Sudeste 0 -- -- 58
2017-08-14 07:00:00 19.3 23 Este 29 Este 0 -- -- 56
2017-08-14 06:00:00 20.2 17 Este 22 Este 0 -- -- 47
2017-08-14 05:00:00 21.9 19 Sudeste 21 Sudeste 0 -- -- 40
2017-08-14 04:00:00 23 5 Sudeste 10 Sudoeste 0 -- -- 41
2017-08-14 03:00:00 22.8 7 Sudoeste 14 Sudoeste 0 -- -- 45
2017-08-14 02:00:00 23.8 9 Sudoeste 15 Sudoeste 0 -- -- 44
2017-08-14 01:00:00 24.9 13 Sudoeste 18 Oeste 0 -- -- 43
2017-08-14 00:00:00 26.4 15 Oeste 21 Oeste 0 -- -- 37
2017-08-13 23:00:00 27.8 8 Sur 19 Sur 0 -- -- 28
2017-08-13 22:00:00 29.7 17 Sur 24 Sur 0 -- -- 25
2017-08-13 21:00:00 32.4 20 Sur 26 Sur 0 -- -- 22
2017-08-13 20:00:00 34.4 8 Oeste 32 Sudeste 0 -- -- 21
2017-08-13 19:00:00 34.9 10 Sur 25 Sur 0 -- -- 21
2017-08-13 18:00:00 35 3 Norte 22 Sur 0 -- -- 21
2017-08-13 17:00:00 34.9 9 Sudoeste 28 Sudeste 0 -- -- 21
2017-08-13 16:00:00 34.3 10 Sur 30 Sudeste 0 -- -- 21
2017-08-13 15:00:00 34 10 Sudeste 31 Sur 0 -- -- 22
2017-08-13 14:00:00 32.8 17 Sur 35 Sur 0 -- -- 23
2017-08-13 13:00:00 31.6 22 Sur 34 Sudeste 0 -- -- 22
2017-08-13 12:00:00 30.4 24 Sudeste 37 Sur 0 -- -- 24
2017-08-13 11:00:00 28.6 21 Sudeste 27 Sudeste 0 -- -- 31
2017-08-13 10:00:00 24.7 16 Este 23 Este 0 -- -- 41
2017-08-13 09:00:00 22.4 16 Sudeste 27 Este 0 -- -- 45
2017-08-13 08:00:00 20.6 20 Este 28 Este 0 -- -- 49
2017-08-13 07:00:00 20.4 21 Este 28 Sudeste 0 -- -- 48
2017-08-13 06:00:00 21.8 23 Sudeste 26 Este 0 -- -- 44
2017-08-13 05:00:00 23 15 Este 21 Este 0 -- -- 40
2017-08-13 04:00:00 22.5 5 Sudoeste 9 Sudoeste 0 -- -- 45
2017-08-13 03:00:00 23 8 Sudoeste 10 Sudoeste 0 -- -- 43
2017-08-13 02:00:00 24.2 8 Sudoeste 12 Oeste 0 -- -- 41
2017-08-13 01:00:00 25.4 9 Sudoeste 15 Oeste 0 -- -- 40
2017-08-13 00:00:00 26.8 7 Sudeste 20 Sudeste 0 -- -- 33
2017-08-12 23:00:00 27.9 9 Sudeste 17 Sur 0 -- -- 29
2017-08-12 22:00:00 29.1 13 Sur 25 Sur 0 -- -- 27
2017-08-12 21:00:00 32.3 14 Sur 19 Sur 0 -- -- 24
2017-08-12 20:00:00 34.2 9 Norte 23 Nordeste 0 -- -- 18
2017-08-12 19:00:00 35.3 4 Sudeste 23 Noroeste 0 -- -- 17
2017-08-12 18:00:00 35.2 6 Noroeste 18 Nordeste 0 -- -- 17
2017-08-12 17:00:00 34.2 9 Norte 26 Este 0 -- -- 19
2017-08-12 16:00:00 33.9 9 Sur 19 Este 0 -- -- 18
2017-08-12 15:00:00 33.1 14 Nordeste 31 Nordeste 0 -- -- 19
2017-08-12 14:00:00 32.6 13 Este 32 Sur 0 -- -- 21
2017-08-12 13:00:00 31.6 13 Sudeste 28 Sudeste 0 -- -- 24
2017-08-12 12:00:00 29.3 15 Sudeste 28 Este 0 -- -- 31
2017-08-12 11:00:00 27.5 18 Sudeste 26 Sudeste 0 -- -- 37
2017-08-12 10:00:00 23.6 17 Este 28 Este 0 -- -- 37
2017-08-12 09:00:00 21.9 21 Este 30 Este 0 -- -- 30
2017-08-12 08:00:00 20.8 22 Sudeste 25 Este 0 -- -- 28
2017-08-12 07:00:00 22.5 11 Este 15 Sudeste 0 -- -- 25
2017-08-12 06:00:00 22.2 4 Sudeste 10 Sudeste 0 -- -- 25
2017-08-12 05:00:00 23.4 7 Este 9 Este 0 -- -- 24
2017-08-12 04:00:00 23 5 Este 8 Nordeste 0 -- -- 25
2017-08-12 03:00:00 24 6 Norte 8 Nordeste 0 -- -- 23
2017-08-12 02:00:00 23.4 5 Nordeste 9 Nordeste 0 -- -- 23
2017-08-12 01:00:00 22.8 10 Nordeste 20 Nordeste 0 -- -- 23
2017-08-12 00:00:00 23.4 18 Nordeste 23 Nordeste 0 -- -- 22
2017-08-11 23:00:00 24 16 Nordeste 23 Nordeste 0 -- -- 22
2017-08-11 22:00:00 26.4 19 Norte 28 Nordeste 0 -- -- 20
2017-08-11 21:00:00 29.7 24 Norte 36 Norte 0 -- -- 18
2017-08-11 20:00:00 31.9 25 Norte 34 Nordeste 0 -- -- 17
2017-08-11 19:00:00 32.8 19 Norte 33 Norte 0 -- -- 16
2017-08-11 18:00:00 33.2 7 Nordeste 28 Norte 0 -- -- 13
2017-08-11 17:00:00 33.2 15 Norte 31 Nordeste 0 -- -- 14
2017-08-11 16:00:00 32.7 10 Este 29 Este 0 -- -- 17
2017-08-11 15:00:00 31.7 11 Nordeste 30 Nordeste 0 -- -- 21
2017-08-11 14:00:00 30.9 12 Este 25 Nordeste 0 -- -- 25
2017-08-11 13:00:00 29.3 12 Este 29 Este 0 -- -- 28
2017-08-11 12:00:00 27.4 19 Este 32 Este 0 -- -- 35
2017-08-11 11:00:00 24.8 22 Este 31 Este 0 -- -- 43
2017-08-11 10:00:00 22.7 14 Este 22 Este 0 -- -- 55
2017-08-11 09:00:00 19.3 11 Nordeste 19 Nordeste 0 -- -- 37
2017-08-11 08:00:00 17.3 10 Este 25 Este 0 -- -- 25
2017-08-11 07:00:00 20.2 17 Este 24 Sudeste 0 -- -- 22
2017-08-11 06:00:00 19.1 13 Sudeste 14 Este 0 -- -- 23
2017-08-11 05:00:00 19.4 14 Este 17 Este 0 -- -- 22
2017-08-11 04:00:00 19.8 17 Este 18 Este 0 -- -- 22
2017-08-11 03:00:00 19.3 9 Nordeste 15 Nordeste 0 -- -- 24
2017-08-11 02:00:00 19.5 16 Nordeste 18 Nordeste 0 -- -- 24
2017-08-11 01:00:00 20.2 17 Nordeste 21 Nordeste 0 -- -- 23
2017-08-11 00:00:00 21.7 16 Nordeste 22 Nordeste 0 -- -- 21
2017-08-10 23:00:00 22.8 17 Norte 24 Norte 0 -- -- 21
2017-08-10 22:00:00 24.9 21 Norte 27 Norte 0 -- -- 22
2017-08-10 21:00:00 28.4 18 Nordeste 26 Nordeste 0 -- -- 17
2017-08-10 20:00:00 29.7 14 Nordeste 29 Norte 0 -- -- 16
2017-08-10 19:00:00 30.6 19 Norte 33 Nordeste 0 -- -- 16
2017-08-10 18:00:00 30.6 17 Norte 33 Nordeste 0 -- -- 17
2017-08-10 17:00:00 30.2 20 Nordeste 41 Norte 0 -- -- 18
2017-08-10 16:00:00 29.5 14 Este 31 Este 0 -- -- 19
2017-08-10 15:00:00 29.1 23 Este 36 Este 0 -- -- 20
2017-08-10 14:00:00 27.9 24 Nordeste 37 Este 0 -- -- 23
2017-08-10 13:00:00 26.9 20 Nordeste 35 Nordeste 0 -- -- 25
2017-08-10 12:00:00 25.4 26 Nordeste 41 Nordeste 0 -- -- 27
2017-08-10 11:00:00 23.2 29 Nordeste 46 Este 0 -- -- 28
2017-08-10 10:00:00 21 34 Nordeste 47 Nordeste 0 -- -- 31
2017-08-10 09:00:00 18.9 32 Nordeste 44 Nordeste 0 -- -- 36
2017-08-10 08:00:00 16.9 27 Este 41 Este 0 -- -- 42
2017-08-10 07:00:00 16.3 18 Este 34 Este 0 -- -- 46
2017-08-10 06:00:00 14.4 11 Nordeste 15 Nordeste 0 -- -- 39
2017-08-10 05:00:00 16.6 8 Norte 9 Norte 0 -- -- 35
2017-08-10 04:00:00 17.1 5 Noroeste 10 Noroeste 0 -- -- 34
2017-08-10 03:00:00 17.9 4 Noroeste 13 Noroeste 0 -- -- 33
2017-08-10 02:00:00 18.9 5 Noroeste 22 Norte 0 -- -- 31
2017-08-10 01:00:00 19.9 13 Norte 26 Norte 0 -- -- 32
2017-08-10 00:00:00 21.5 17 Norte 23 Norte 0 -- -- 30
2017-08-09 23:00:00 22.8 19 Noroeste 23 Noroeste 0 -- -- 29
2017-08-09 22:00:00 24 21 Noroeste 31 Noroeste 0 -- -- 26
2017-08-09 21:00:00 26.5 23 Noroeste 37 Norte 0 -- -- 22
2017-08-09 20:00:00 28 26 Norte 37 Noroeste 0 -- -- 21
2017-08-09 19:00:00 28.8 22 Noroeste 50 Norte 0 -- -- 23
2017-08-09 18:00:00 29.2 24 Norte 39 Norte 0 -- -- 23
2017-08-09 17:00:00 29.6 15 Norte 31 Norte 0 -- -- 23
2017-08-09 16:00:00 28.6 17 Noroeste 33 Oeste 0 -- -- 23
2017-08-09 15:00:00 27.3 14 Oeste 34 Noroeste 0 -- -- 26
2017-08-09 14:00:00 26.3 12 Noroeste 24 Noroeste 0 -- -- 28
2017-08-09 13:00:00 24.6 12 Noroeste 23 Noroeste 0 -- -- 32
2017-08-09 12:00:00 21.9 12 Noroeste 18 Noroeste 0 -- -- 42
2017-08-09 11:00:00 18.7 8 Noroeste 14 Oeste 0 -- -- 51
2017-08-09 10:00:00 16.4 9 Oeste 14 Oeste 0 -- -- 59
2017-08-09 09:00:00 14.6 9 Oeste 13 Oeste 0 -- -- 65
2017-08-09 08:00:00 13.4 10 Oeste 12 Oeste 0 -- -- 68
2017-08-09 07:00:00 13.6 9 Sudoeste 9 Sudoeste 0 -- -- 67
2017-08-09 06:00:00 14 8 Sudoeste 12 Oeste 0 -- -- 65
2017-08-09 05:00:00 14.5 10 Oeste 12 Oeste 0 -- -- 62
2017-08-09 04:00:00 15.5 10 Oeste 15 Oeste 0 -- -- 59
2017-08-09 03:00:00 16.3 11 Oeste 18 Oeste 0 -- -- 56
2017-08-09 02:00:00 17.6 13 Oeste 21 Oeste 0 -- -- 53
2017-08-09 01:00:00 19 13 Oeste 16 Oeste 0 -- -- 44
2017-08-09 00:00:00 21 16 Noroeste 27 Noroeste 0 -- -- 33
2017-08-08 23:00:00 23.2 16 Noroeste 20 Noroeste 0 -- -- 24
2017-08-08 22:00:00 24.3 16 Norte 26 Norte 0 -- -- 19
2017-08-08 21:00:00 27.4 21 Norte 30 Noroeste 0 -- -- 15
2017-08-08 20:00:00 28.8 24 Norte 33 Noroeste 0 -- -- 14
2017-08-08 19:00:00 29.6 23 Norte 37 Norte 0 -- -- 15
2017-08-08 18:00:00 29.9 22 Noroeste 37 Noroeste 0 -- -- 15
2017-08-08 17:00:00 30.2 20 Noroeste 36 Noroeste 0 -- -- 15
2017-08-08 16:00:00 28.8 20 Noroeste 34 Noroeste 0 -- -- 19
2017-08-08 15:00:00 27.6 16 Norte 31 Noroeste 0 -- -- 24
2017-08-08 14:00:00 26.2 17 Noroeste 33 Noroeste 0 -- -- 31
2017-08-08 13:00:00 24 16 Noroeste 28 Noroeste 0 -- -- 36
2017-08-08 12:00:00 22.1 14 Noroeste 25 Noroeste 0 -- -- 47
2017-08-08 11:00:00 20.1 16 Noroeste 25 Noroeste 0 -- -- 55
2017-08-08 10:00:00 17.2 9 Noroeste 15 Noroeste 0 -- -- 64
2017-08-08 09:00:00 15 7 Noroeste 13 Noroeste 0 -- -- 70
2017-08-08 08:00:00 12.9 9 Noroeste 15 Noroeste 0 -- -- 75
2017-08-08 07:00:00 13.4 14 Noroeste 17 Noroeste 0 -- -- 72
2017-08-08 06:00:00 14.5 11 Oeste 14 Oeste 0 -- -- 60
2017-08-08 05:00:00 15.4 13 Noroeste 18 Noroeste 0 -- -- 58
2017-08-08 04:00:00 16.5 12 Noroeste 18 Noroeste 0 -- -- 49
2017-08-08 03:00:00 18.8 12 Oeste 14 Oeste 0 -- -- 36
2017-08-08 02:00:00 20.2 10 Oeste 21 Oeste 0 -- -- 35
2017-08-08 01:00:00 22 13 Oeste 24 Noroeste 0 -- -- 39
2017-08-08 00:00:00 23.8 18 Noroeste 30 Oeste 0 -- -- 32
2017-08-07 23:00:00 26.1 23 Oeste 29 Oeste 0 -- -- 26
2017-08-07 22:00:00 27.8 20 Noroeste 26 Oeste 0 -- -- 21
2017-08-07 21:00:00 30.3 22 Oeste 35 Oeste 0 -- -- 17
2017-08-07 20:00:00 32.7 22 Oeste 41 Oeste 0 -- -- 13
2017-08-07 19:00:00 34.4 27 Oeste 40 Oeste 0 -- -- 11
2017-08-07 18:00:00 35.7 27 Oeste 54 Oeste 0 -- -- 10
2017-08-07 17:00:00 36.7 24 Oeste 44 Oeste 0 -- -- 10
2017-08-07 16:00:00 36.9 28 Sudoeste 42 Sudoeste 0 -- -- 10
2017-08-07 15:00:00 35.6 12 Noroeste 32 Oeste 0 -- -- 9
2017-08-07 14:00:00 33.9 14 Oeste 28 Oeste 0 -- -- 10
2017-08-07 13:00:00 32.6 14 Oeste 23 Oeste 0 -- -- 10
2017-08-07 12:00:00 30.2 7 Noroeste 15 Noroeste 0 -- -- 14
2017-08-07 11:00:00 28.3 9 Oeste 15 Oeste 0 -- -- 16
2017-08-07 10:00:00 25.7 6 Sudoeste 9 Sur 0 -- -- 34
2017-08-07 09:00:00 22.3 3 Este 8 Norte 0 -- -- 47
2017-08-07 08:00:00 20.8 4 Sudoeste 10 Sudoeste 0 -- -- 50
2017-08-07 07:00:00 21.9 8 Oeste 11 Oeste 0 -- -- 46
2017-08-07 06:00:00 22.5 5 Oeste 7 Sudoeste 0 -- -- 44
2017-08-07 05:00:00 22.6 8 Oeste 12 Oeste 0 -- -- 42
2017-08-07 04:00:00 23.6 13 Oeste 17 Oeste 0 -- -- 37
2017-08-07 03:00:00 25.2 12 Oeste 21 Sur 0 -- -- 28
2017-08-07 02:00:00 26.2 19 Sudoeste 26 Sudoeste 0 -- -- 25
2017-08-07 01:00:00 26.5 11 Sudoeste 14 Sudoeste 0 -- -- 23
2017-08-07 00:00:00 27.8 6 Sudoeste 11 Sudoeste 0 -- -- 19
2017-08-06 23:00:00 29 9 Oeste 16 Oeste 0 -- -- 16
2017-08-06 22:00:00 29.8 17 Oeste 25 Oeste 0 -- -- 16
2017-08-06 21:00:00 32.9 19 Oeste 29 Oeste 0 -- -- 13
2017-08-06 20:00:00 35.4 21 Oeste 32 Oeste 0 -- -- 12
2017-08-06 19:00:00 35.9 21 Oeste 34 Oeste 0 -- -- 12
2017-08-06 18:00:00 37.2 20 Oeste 36 Oeste 0 -- -- 11
2017-08-06 17:00:00 36.9 17 Oeste 37 Oeste 0 -- -- 10
2017-08-06 16:00:00 36.6 18 Sudoeste 41 Oeste 0 -- -- 11
2017-08-06 15:00:00 36 19 Oeste 37 Oeste 0 -- -- 13
2017-08-06 14:00:00 34.8 15 Oeste 27 Oeste 0 -- -- 16
2017-08-06 13:00:00 32.6 10 Noroeste 19 Noroeste 0 -- -- 12
2017-08-06 12:00:00 30.7 7 Noroeste 12 Oeste 0 -- -- 15
2017-08-06 11:00:00 27.9 5 Oeste 8 Oeste 0 -- -- 21
2017-08-06 10:00:00 23.9 2 Oeste 6 Norte 0 -- -- 33
2017-08-06 09:00:00 20 4 Norte 10 Noroeste 0 -- -- 45
2017-08-06 08:00:00 19.2 7 Oeste 9 Oeste 0 -- -- 46
2017-08-06 07:00:00 19.5 8 Oeste 10 Oeste 0 -- -- 45
2017-08-06 06:00:00 19.8 8 Oeste 13 Sudoeste 0 -- -- 45
2017-08-06 05:00:00 20 9 Oeste 12 Sudoeste 0 -- -- 46
2017-08-06 04:00:00 20.5 8 Oeste 11 Sudoeste 0 -- -- 44
2017-08-06 03:00:00 21.2 8 Sudoeste 15 Oeste 0 -- -- 42
2017-08-06 02:00:00 22.6 14 Oeste 19 Oeste 0 -- -- 39
2017-08-06 01:00:00 23.8 15 Oeste 26 Oeste 0 -- -- 35
2017-08-06 00:00:00 26.2 19 Oeste 25 Oeste 0 -- -- 32
2017-08-05 23:00:00 28.1 17 Oeste 29 Noroeste 0 -- -- 28
2017-08-05 22:00:00 30.4 19 Oeste 35 Oeste 0 -- -- 27
2017-08-05 21:00:00 33.6 28 Oeste 38 Oeste 0 -- -- 24
2017-08-05 20:00:00 35.8 27 Oeste 36 Oeste 0 -- -- 20
2017-08-05 19:00:00 37 21 Oeste 39 Oeste 0 -- -- 18
2017-08-05 18:00:00 37.7 21 Oeste 45 Noroeste 0 -- -- 18
2017-08-05 17:00:00 38 19 Noroeste 41 Oeste 0 -- -- 18
2017-08-05 16:00:00 37.3 20 Oeste 42 Norte 0 -- -- 22
2017-08-05 15:00:00 36.7 13 Oeste 31 Oeste 0 -- -- 21
2017-08-05 14:00:00 35.9 13 Noroeste 24 Oeste 0 -- -- 23
2017-08-05 13:00:00 33.6 10 Norte 19 Noroeste 0 -- -- 28
2017-08-05 12:00:00 30.8 8 Noroeste 17 Noroeste 0 -- -- 35
2017-08-05 11:00:00 28.5 10 Noroeste 18 Noroeste 0 -- -- 38
2017-08-05 10:00:00 27.1 10 Oeste 14 Oeste 0 -- -- 41
2017-08-05 09:00:00 24.8 5 Sudoeste 8 Sudoeste 0 -- -- 43
2017-08-05 08:00:00 23.3 7 Oeste 8 Sudoeste 0 -- -- 46
2017-08-05 07:00:00 23.7 5 Sudoeste 8 Oeste 0 -- -- 45
2017-08-05 06:00:00 24.5 6 Oeste 9 Sudoeste 0 -- -- 43
2017-08-05 05:00:00 25.1 6 Sudoeste 9 Sudoeste 0 -- -- 42
2017-08-05 04:00:00 25.5 8 Sudoeste 13 Sudoeste 0 -- -- 42
2017-08-05 03:00:00 26.3 8 Sudoeste 12 Oeste 0 -- -- 41
2017-08-05 02:00:00 26.9 10 Oeste 14 Oeste 0 -- -- 40
2017-08-05 01:00:00 27.8 12 Oeste 15 Oeste 0 -- -- 39
2017-08-05 00:00:00 29.2 10 Noroeste 22 Noroeste 0 -- -- 36
2017-08-04 23:00:00 31.3 18 Noroeste 26 Noroeste 0 -- -- 32
2017-08-04 22:00:00 33.5 17 Norte 23 Norte 0 -- -- 25
2017-08-04 21:00:00 36.6 18 Norte 31 Norte 0 -- -- 22
2017-08-04 20:00:00 37.8 16 Norte 27 Norte 0 -- -- 21
2017-08-04 19:00:00 38.2 12 Norte 28 Norte 0 -- -- 21
2017-08-04 18:00:00 38.2 12 Norte 26 Norte 0 -- -- 21
2017-08-04 17:00:00 37.6 14 Noroeste 35 Norte 0 -- -- 22
2017-08-04 16:00:00 37.8 9 Norte 25 Norte 0 -- -- 22
2017-08-04 15:00:00 36.5 10 Nordeste 22 Nordeste 0 -- -- 24
2017-08-04 14:00:00 35.7 10 Norte 23 Norte 0 -- -- 25
2017-08-04 13:00:00 34 10 Norte 23 Nordeste 0 -- -- 29
2017-08-04 12:00:00 32.3 12 Norte 19 Norte 0 -- -- 32
2017-08-04 11:00:00 29.4 8 Norte 12 Nordeste 0 -- -- 41
2017-08-04 10:00:00 27 4 Norte 9 Norte 0 -- -- 48
2017-08-04 09:00:00 24.7 3 Noroeste 5 Noroeste 0 -- -- 54
2017-08-04 08:00:00 23 4 Noroeste 5 Noroeste 0 -- -- 58
2017-08-04 07:00:00 22.7 3 Oeste 6 Oeste 0 -- -- 59
2017-08-04 06:00:00 23.3 6 Oeste 7 Oeste 0 -- -- 57
2017-08-04 05:00:00 23.4 6 Sudoeste 9 Oeste 0 -- -- 55
2017-08-04 04:00:00 24.1 6 Oeste 13 Oeste 0 -- -- 54
2017-08-04 03:00:00 24.6 6 Sudoeste 17 Noroeste 0 -- -- 51
2017-08-04 02:00:00 25.1 13 Noroeste 18 Noroeste 0 -- -- 49
2017-08-04 01:00:00 26.4 6 Oeste 24 Noroeste 0 -- -- 41
2017-08-04 00:00:00 28 21 Noroeste 31 Noroeste 0 -- -- 40
2017-08-03 23:00:00 29.6 15 Noroeste 19 Noroeste 0 -- -- 28
2017-08-03 22:00:00 30.7 15 Norte 24 Norte 0 -- -- 26
2017-08-03 21:00:00 33.6 17 Norte 29 Norte 0 -- -- 17
2017-08-03 20:00:00 34.7 23 Norte 32 Norte 0 -- -- 14
2017-08-03 19:00:00 35.7 22 Noroeste 36 Noroeste 0 -- -- 15
2017-08-03 18:00:00 36.1 18 Norte 32 Noroeste 0 -- -- 16
2017-08-03 17:00:00 36 12 Noroeste 27 Noroeste 0 -- -- 17
2017-08-03 16:00:00 35.7 17 Noroeste 26 Noroeste 0 -- -- 15
2017-08-03 15:00:00 35 17 Noroeste 26 Noroeste 0 -- -- 13
2017-08-03 14:00:00 33.8 13 Noroeste 24 Noroeste 0 -- -- 17
2017-08-03 13:00:00 32.9 9 Oeste 21 Noroeste 0 -- -- 19
2017-08-03 12:00:00 31.6 5 Este 10 Este 0 -- -- 20
2017-08-03 11:00:00 29 5 Norte 10 Norte 0 -- -- 21
2017-08-03 10:00:00 25.7 3 Sudoeste 6 Sudoeste 0 -- -- 28
2017-08-03 09:00:00 22.1 4 Sudoeste 6 Sudoeste 0 -- -- 32
2017-08-03 08:00:00 20.5 4 Oeste 6 Oeste 0 -- -- 37
2017-08-03 07:00:00 20.3 4 Sudoeste 7 Sudoeste 0 -- -- 39
2017-08-03 06:00:00 20 6 Sudoeste 8 Sudoeste 0 -- -- 39
2017-08-03 05:00:00 20 5 Sudoeste 8 Sudoeste 0 -- -- 37
2017-08-03 04:00:00 20.6 5 Sudoeste 9 Oeste 0 -- -- 33
2017-08-03 03:00:00 21.3 7 Oeste 10 Oeste 0 -- -- 35
2017-08-03 02:00:00 21.9 7 Noroeste 14 Noroeste 0 -- -- 31
2017-08-03 01:00:00 22.9 13 Noroeste 15 Noroeste 0 -- -- 29
2017-08-03 00:00:00 24.8 8 Oeste 19 Norte 0 -- -- 27
2017-08-02 23:00:00 26.8 18 Norte 21 Norte 0 -- -- 26
2017-08-02 22:00:00 28.6 17 Noroeste 27 Norte 0 -- -- 24
2017-08-02 21:00:00 32.5 12 Norte 22 Norte 0 -- -- 19
2017-08-02 20:00:00 33.7 9 Norte 21 Noroeste 0 -- -- 18
2017-08-02 19:00:00 33.9 6 Norte 23 Norte 0 -- -- 19
2017-08-02 18:00:00 33.5 9 Noroeste 24 Noroeste 0 -- -- 19
2017-08-02 17:00:00 33.3 6 Nordeste 21 Oeste 0 -- -- 20
2017-08-02 16:00:00 32.5 13 Norte 24 Norte 0 -- -- 21
2017-08-02 15:00:00 31.2 13 Noroeste 27 Noroeste 0 -- -- 22
2017-08-02 14:00:00 30.5 11 Nordeste 20 Norte 0 -- -- 24
2017-08-02 13:00:00 29 9 Noroeste 19 Noroeste 0 -- -- 26
2017-08-02 12:00:00 27.5 8 Norte 16 Norte 0 -- -- 28
2017-08-02 11:00:00 24.7 6 Norte 11 Norte 0 -- -- 32
2017-08-02 10:00:00 21.4 5 Oeste 7 Oeste 0 -- -- 34
2017-08-02 09:00:00 19 2 Oeste 5 Oeste 0 -- -- 42
2017-08-02 08:00:00 16.9 5 Sudoeste 8 Oeste 0 -- -- 47
2017-08-02 07:00:00 16.2 4 Sudoeste 9 Sudoeste 0 -- -- 49
2017-08-02 06:00:00 16.3 6 Sudoeste 8 Sudoeste 0 -- -- 49
2017-08-02 05:00:00 16.6 5 Sudoeste 9 Sudoeste 0 -- -- 48
2017-08-02 04:00:00 17.1 7 Sudoeste 10 Sudoeste 0 -- -- 46
2017-08-02 03:00:00 17.8 6 Oeste 12 Oeste 0 -- -- 44
2017-08-02 02:00:00 18.4 8 Noroeste 16 Oeste 0 -- -- 42
2017-08-02 01:00:00 19.6 9 Noroeste 19 Noroeste 0 -- -- 36
2017-08-02 00:00:00 21.3 14 Noroeste 21 Noroeste 0 -- -- 33
2017-08-01 23:00:00 23.2 16 Noroeste 22 Noroeste 0 -- -- 29
2017-08-01 22:00:00 24.9 16 Noroeste 29 Noroeste 0 -- -- 26
2017-08-01 21:00:00 28 20 Noroeste 27 Noroeste 0 -- -- 25
2017-08-01 20:00:00 29.5 14 Noroeste 26 Oeste 0 -- -- 24
2017-08-01 19:00:00 29.7 13 Noroeste 30 Noroeste 0 -- -- 25
2017-08-01 18:00:00 29.5 11 Oeste 32 Noroeste 0 -- -- 26
2017-08-01 17:00:00 29.4 11 Oeste 24 Oeste 0 -- -- 26
2017-08-01 16:00:00 28.7 11 Oeste 27 Noroeste 0 -- -- 26
2017-08-01 15:00:00 28.1 13 Noroeste 24 Oeste 0 -- -- 28
2017-08-01 14:00:00 26.5 12 Noroeste 23 Noroeste 0 -- -- 29
2017-08-01 13:00:00 24.3 9 Oeste 17 Oeste 0 -- -- 34
2017-08-01 12:00:00 21.8 10 Oeste 16 Oeste 0 -- -- 43
2017-08-01 11:00:00 19.3 4 Oeste 14 Oeste 0 -- -- 51
2017-08-01 10:00:00 17.2 7 Oeste 12 Noroeste 0 -- -- 61
2017-08-01 09:00:00 16.2 4 Oeste 8 Noroeste 0 -- -- 68
2017-08-01 08:00:00 15.9 4 Sudoeste 13 Oeste 0 -- -- 64
2017-08-01 07:00:00 16 8 Oeste 12 Oeste 0 -- -- 67
2017-08-01 06:00:00 16.5 9 Sudoeste 17 Oeste 0 -- -- 67
2017-08-01 05:00:00 16.8 13 Oeste 18 Oeste 0 -- -- 66
2017-08-01 04:00:00 17.2 10 Oeste 13 Oeste 0 -- -- 60
2017-08-01 03:00:00 17.7 10 Oeste 15 Oeste 0 -- -- 54
2017-08-01 02:00:00 18.2 13 Oeste 15 Oeste 0 -- -- 49
2017-08-01 01:00:00 19.2 10 Noroeste 21 Noroeste 0 -- -- 45
2017-08-01 00:00:00 20.3 15 Noroeste 24 Oeste 0 -- -- 40
2017-07-31 23:00:00 21.6 19 Noroeste 24 Noroeste 0 -- -- 37
2017-07-31 22:00:00 22.8 22 Noroeste 33 Noroeste 0 -- -- 36
2017-07-31 21:00:00 27.2 24 Oeste 31 Oeste 0 -- -- 21
2017-07-31 20:00:00 28.8 26 Noroeste 35 Oeste 0 -- -- 19
2017-07-31 19:00:00 30.1 24 Oeste 41 Noroeste 0 -- -- 18
2017-07-31 18:00:00 30.9 25 Oeste 40 Oeste 0 -- -- 18
2017-07-31 17:00:00 32.4 20 Oeste 45 Oeste 0 -- -- 15
2017-07-31 16:00:00 32.3 25 Oeste 40 Oeste 0 -- -- 16
2017-07-31 15:00:00 30.8 23 Noroeste 35 Noroeste 0 -- -- 17
2017-07-31 14:00:00 29.1 16 Oeste 31 Oeste 0 -- -- 19
2017-07-31 13:00:00 27.6 17 Oeste 27 Oeste 0 -- -- 22
2017-07-31 12:00:00 25.6 13 Oeste 25 Oeste 0 -- -- 22
2017-07-31 11:00:00 22.6 18 Noroeste 25 Noroeste 0 -- -- 42
2017-07-31 10:00:00 19.8 5 Oeste 11 Noroeste 0 -- -- 45
2017-07-31 09:00:00 17.5 8 Noroeste 12 Noroeste 0 -- -- 53
2017-07-31 08:00:00 17.4 8 Oeste 10 Oeste 0 -- -- 47
2017-07-31 07:00:00 17.5 6 Sudoeste 10 Sur 0 -- -- 48
2017-07-31 06:00:00 16.8 8 Sudoeste 10 Oeste 0 -- -- 51
2017-07-31 05:00:00 17.1 9 Oeste 15 Oeste 0 -- -- 52
2017-07-31 04:00:00 18.1 14 Oeste 18 Oeste 0 -- -- 48
2017-07-31 03:00:00 19.8 12 Oeste 20 Oeste 0 -- -- 45
2017-07-31 02:00:00 21.2 15 Oeste 19 Oeste 0 -- -- 42
2017-07-31 01:00:00 22.5 12 Noroeste 20 Oeste 0 -- -- 38
2017-07-31 00:00:00 24.7 16 Noroeste 24 Noroeste 0 -- -- 34
2017-07-30 23:00:00 26.6 20 Noroeste 25 Noroeste 0 -- -- 31
2017-07-30 22:00:00 29 19 Noroeste 30 Noroeste 0 -- -- 27
2017-07-30 21:00:00 32.3 20 Noroeste 33 Noroeste 0 -- -- 21
2017-07-30 20:00:00 34.5 20 Noroeste 31 Oeste 0 -- -- 19
2017-07-30 19:00:00 35.6 15 Noroeste 33 Noroeste 0 -- -- 17
2017-07-30 18:00:00 35.6 18 Oeste 41 Noroeste 0 -- -- 18
2017-07-30 17:00:00 35.8 22 Noroeste 39 Noroeste 0 -- -- 18
2017-07-30 16:00:00 35.4 17 Oeste 32 Oeste 0 -- -- 19
2017-07-30 15:00:00 34.8 13 Oeste 32 Noroeste 0 -- -- 18
2017-07-30 14:00:00 33.7 13 Oeste 24 Oeste 0 -- -- 19
2017-07-30 13:00:00 32.4 12 Noroeste 19 Noroeste 0 -- -- 20
2017-07-30 12:00:00 30.2 9 Noroeste 17 Noroeste 0 -- -- 21
2017-07-30 11:00:00 27.8 4 Noroeste 15 Oeste 0 -- -- 24
2017-07-30 10:00:00 24.1 6 Sudoeste 11 Oeste 0 -- -- 37
2017-07-30 09:00:00 21.5 6 Oeste 10 Oeste 0 -- -- 49
2017-07-30 08:00:00 21.4 4 Sudoeste 7 Oeste 0 -- -- 47
2017-07-30 07:00:00 21.9 5 Sudoeste 7 Oeste 0 -- -- 48
2017-07-30 06:00:00 22.8 3 Oeste 9 Sur 0 -- -- 43
2017-07-30 05:00:00 22.2 7 Sur 9 Sur 0 -- -- 53
2017-07-30 04:00:00 22.5 3 Sudoeste 13 Noroeste 0 -- -- 54
2017-07-30 03:00:00 22.9 10 Noroeste 15 Noroeste 0 -- -- 55
2017-07-30 02:00:00 24.7 10 Noroeste 13 Noroeste 0 -- -- 38
2017-07-30 01:00:00 26.9 9 Oeste 14 Oeste 0 -- -- 28
2017-07-30 00:00:00 28.8 6 Oeste 13 Oeste 0 -- -- 25
2017-07-29 23:00:00 28.9 10 Noroeste 21 Noroeste 0 -- -- 26
2017-07-29 22:00:00 31.2 17 Noroeste 24 Noroeste 0 -- -- 24
2017-07-29 21:00:00 34.1 18 Oeste 28 Oeste 0 -- -- 22
2017-07-29 20:00:00 35.6 18 Noroeste 30 Oeste 0 -- -- 22
2017-07-29 19:00:00 36.9 15 Oeste 32 Oeste 0 -- -- 21
2017-07-29 18:00:00 36.6 14 Oeste 27 Noroeste 0 -- -- 21
2017-07-29 17:00:00 36.9 15 Sudoeste 31 Oeste 0 -- -- 18
2017-07-29 16:00:00 36.3 20 Noroeste 30 Oeste 0 -- -- 20
2017-07-29 15:00:00 34.9 13 Noroeste 27 Noroeste 0 -- -- 25
2017-07-29 14:00:00 33.7 12 Norte 21 Norte 0 -- -- 27
2017-07-29 13:00:00 32.2 6 Noroeste 23 Noroeste 0 -- -- 30
2017-07-29 12:00:00 30 10 Noroeste 17 Noroeste 0 -- -- 34
2017-07-29 11:00:00 27.1 9 Noroeste 15 Oeste 0 -- -- 38
2017-07-29 10:00:00 25 5 Oeste 8 Oeste 0 -- -- 44
2017-07-29 09:00:00 21.8 3 Oeste 9 Oeste 0 -- -- 51
2017-07-29 08:00:00 20.5 7 Oeste 9 Sudoeste 0 -- -- 53
2017-07-29 07:00:00 20.8 6 Oeste 9 Oeste 0 -- -- 54
2017-07-29 06:00:00 21.8 5 Sudoeste 8 Sudoeste 0 -- -- 52
2017-07-29 05:00:00 21.9 5 Sur 8 Sudoeste 0 -- -- 50
2017-07-29 04:00:00 22.2 6 Sudoeste 8 Sur 0 -- -- 45
2017-07-29 03:00:00 23.6 4 Oeste 6 Oeste 0 -- -- 41
2017-07-29 02:00:00 24.4 5 Oeste 13 Noroeste 0 -- -- 40
2017-07-29 01:00:00 25.4 8 Oeste 23 Noroeste 0 -- -- 37
2017-07-29 00:00:00 26.8 15 Noroeste 25 Noroeste 0 -- -- 32
2017-07-28 23:00:00 28.9 17 Noroeste 23 Noroeste 0 -- -- 23
2017-07-28 22:00:00 31 15 Norte 25 Noroeste 0 -- -- 17
2017-07-28 21:00:00 34.4 21 Noroeste 31 Noroeste 0 -- -- 15
2017-07-28 20:00:00 36 24 Norte 36 Norte 0 -- -- 14
2017-07-28 19:00:00 36.8 21 Noroeste 34 Noroeste 0 -- -- 17
2017-07-28 18:00:00 37.3 13 Noroeste 29 Noroeste 0 -- -- 14
2017-07-28 17:00:00 37 12 Oeste 28 Oeste 0 -- -- 15
2017-07-28 16:00:00 36.2 11 Oeste 30 Noroeste 0 -- -- 18
2017-07-28 15:00:00 35.7 12 Noroeste 22 Norte 0 -- -- 16
2017-07-28 14:00:00 33.5 10 Noroeste 21 Noroeste 0 -- -- 21
2017-07-28 13:00:00 31.3 9 Norte 16 Noroeste 0 -- -- 28
2017-07-28 12:00:00 28.6 8 Norte 13 Norte 0 -- -- 32
2017-07-28 11:00:00 25 6 Norte 12 Norte 0 -- -- 42
2017-07-28 10:00:00 22 5 Oeste 8 Oeste 0 -- -- 50
2017-07-28 09:00:00 19.9 3 Oeste 4 Noroeste 0 -- -- 56
2017-07-28 08:00:00 18.7 0 Calma 4 Oeste 0 -- -- 59
2017-07-28 07:00:00 18.5 5 Oeste 10 Sudoeste 0 -- -- 60
2017-07-28 06:00:00 19 9 Oeste 10 Oeste 0 -- -- 58
2017-07-28 05:00:00 20.3 9 Sudoeste 13 Oeste 0 -- -- 51
2017-07-28 04:00:00 21.8 7 Oeste 10 Sudoeste 0 -- -- 45
2017-07-28 03:00:00 22.5 9 Sudoeste 12 Sudoeste 0 -- -- 42
2017-07-28 02:00:00 23.6 5 Sudoeste 15 Oeste 0 -- -- 36
2017-07-28 01:00:00 25.1 9 Oeste 15 Oeste 0 -- -- 29
2017-07-28 00:00:00 26.4 13 Noroeste 20 Oeste 0 -- -- 25
2017-07-27 23:00:00 28.1 12 Oeste 22 Oeste 0 -- -- 22
2017-07-27 22:00:00 29.9 18 Oeste 27 Oeste 0 -- -- 22
2017-07-27 21:00:00 32.7 24 Oeste 33 Oeste 0 -- -- 20
2017-07-27 20:00:00 34.5 23 Oeste 35 Oeste 0 -- -- 19
2017-07-27 19:00:00 35.6 23 Oeste 39 Oeste 0 -- -- 18
2017-07-27 18:00:00 35.8 20 Noroeste 46 Oeste 0 -- -- 19
2017-07-27 17:00:00 36.4 25 Noroeste 41 Noroeste 0 -- -- 19
2017-07-27 16:00:00 36.4 23 Noroeste 36 Oeste 0 -- -- 20
2017-07-27 15:00:00 35.8 17 Oeste 32 Oeste 0 -- -- 21
2017-07-27 14:00:00 35.1 11 Norte 29 Oeste 0 -- -- 22
2017-07-27 13:00:00 34.2 11 Oeste 22 Oeste 0 -- -- 23
2017-07-27 12:00:00 32.4 8 Oeste 16 Oeste 0 -- -- 26
2017-07-27 11:00:00 29.7 3 Sudoeste 8 Noroeste 0 -- -- 31
2017-07-27 10:00:00 26.5 4 Oeste 6 Oeste 0 -- -- 35
2017-07-27 09:00:00 24.9 0 Calma 7 Sudoeste 0 -- -- 38
2017-07-27 08:00:00 23.3 6 Sudoeste 9 Sudoeste 0 -- -- 41
2017-07-27 07:00:00 22.5 8 Sudoeste 10 Sudoeste 0 -- -- 43
2017-07-27 06:00:00 22.8 8 Sudoeste 10 Sudoeste 0 -- -- 43
2017-07-27 05:00:00 23.4 9 Sudoeste 11 Sudoeste 0 -- -- 42
2017-07-27 04:00:00 24.4 5 Sudoeste 8 Sudoeste 0 -- -- 40
2017-07-27 03:00:00 24.4 4 Sudoeste 9 Sudoeste 0 -- -- 40
2017-07-27 02:00:00 25.1 6 Sudoeste 13 Oeste 0 -- -- 35
2017-07-27 01:00:00 26 10 Oeste 19 Oeste 0 -- -- 29
2017-07-27 00:00:00 28 4 Sur 10 Nordeste 0 -- -- 26
2017-07-26 23:00:00 28.8 6 Sur 18 Oeste 0 -- -- 24
2017-07-26 22:00:00 30.8 6 Oeste 23 Noroeste 0 -- -- 22
2017-07-26 21:00:00 33.3 18 Oeste 28 Oeste 0 -- -- 20
2017-07-26 20:00:00 34.7 15 Oeste 32 Noroeste 0 -- -- 19
2017-07-26 19:00:00 35.5 13 Noroeste 24 Oeste 0 -- -- 18
2017-07-26 18:00:00 35.5 18 Oeste 37 Noroeste 0 -- -- 18
2017-07-26 17:00:00 35.2 17 Noroeste 36 Oeste 0 -- -- 19
2017-07-26 16:00:00 34.3 10 Noroeste 26 Noroeste 0 -- -- 20
2017-07-26 15:00:00 33.1 10 Noroeste 21 Noroeste 0 -- -- 21
2017-07-26 14:00:00 32 9 Norte 22 Norte 0 -- -- 22
2017-07-26 13:00:00 31.4 15 Norte 22 Norte 0 -- -- 23
2017-07-26 12:00:00 30.3 5 Nordeste 11 Sur 0 -- -- 24
2017-07-26 11:00:00 27.6 6 Sur 10 Sur 0 -- -- 27
2017-07-26 10:00:00 24.2 0 Calma 6 Norte 0 -- -- 32
2017-07-26 09:00:00 23.1 4 Nordeste 6 Norte 0 -- -- 33
2017-07-26 08:00:00 23.1 0 Calma 3 Nordeste 0 -- -- 34
2017-07-26 07:00:00 23.1 2 Oeste 5 Sudeste 0 -- -- 35
2017-07-26 06:00:00 23.2 4 Sudoeste 6 Sudeste 0 -- -- 35
2017-07-26 05:00:00 23.3 0 Calma 6 Sudeste 0 -- -- 34
2017-07-26 04:00:00 23.9 3 Oeste 7 Oeste 0 -- -- 33
2017-07-26 03:00:00 24.1 2 Sur 14 Norte 0 -- -- 33
2017-07-26 02:00:00 24.4 10 Norte 19 Noroeste 0 -- -- 34
2017-07-26 01:00:00 25.4 8 Oeste 17 Noroeste 0 -- -- 29
2017-07-26 00:00:00 26.9 11 Norte 17 Norte 0 -- -- 25
2017-07-25 23:00:00 27.9 17 Norte 23 Norte 0 -- -- 24
2017-07-25 22:00:00 29.9 17 Norte 28 Noroeste 0 -- -- 26
2017-07-25 21:00:00 33 19 Noroeste 28 Norte 0 -- -- 22
2017-07-25 20:00:00 34.5 24 Noroeste 33 Noroeste 0 -- -- 20
2017-07-25 19:00:00 35 16 Noroeste 31 Noroeste 0 -- -- 21
2017-07-25 18:00:00 35.9 26 Norte 35 Norte 0 -- -- 21
2017-07-25 17:00:00 35.3 12 Norte 30 Norte 0 -- -- 20
2017-07-25 16:00:00 34.9 8 Norte 26 Norte 0 -- -- 19
2017-07-25 15:00:00 33.6 9 Noroeste 25 Norte 0 -- -- 18
2017-07-25 14:00:00 32.2 10 Noroeste 20 Noroeste 0 -- -- 24
2017-07-25 13:00:00 31 11 Nordeste 20 Norte 0 -- -- 26
2017-07-25 12:00:00 27.7 5 Norte 12 Nordeste 0 -- -- 33
2017-07-25 11:00:00 24.2 7 Noroeste 14 Norte 0 -- -- 41
2017-07-25 10:00:00 23.7 9 Norte 14 Norte 0 -- -- 46
2017-07-25 09:00:00 22.3 5 Noroeste 8 Noroeste 0 -- -- 50
2017-07-25 08:00:00 20.6 3 Sudoeste 9 Sudoeste 0 -- -- 56
2017-07-25 07:00:00 19.8 6 Sudoeste 9 Sudoeste 0 -- -- 61
2017-07-25 06:00:00 20.3 7 Sudoeste 9 Sudoeste 0 -- -- 60
2017-07-25 05:00:00 20.4 7 Sudoeste 9 Sudoeste 0 -- -- 60
2017-07-25 04:00:00 20.8 8 Sudoeste 10 Sudoeste 0 -- -- 57
2017-07-25 03:00:00 21.3 8 Sudoeste 14 Oeste 0 -- -- 55
2017-07-25 02:00:00 22.4 10 Oeste 14 Oeste 0 -- -- 53
2017-07-25 01:00:00 23.4 10 Noroeste 18 Noroeste 0 -- -- 46
2017-07-25 00:00:00 25.1 7 Oeste 24 Noroeste 0 -- -- 39
2017-07-24 23:00:00 27.3 21 Noroeste 33 Noroeste 0 -- -- 33
2017-07-24 22:00:00 29.1 18 Noroeste 30 Noroeste 0 -- -- 25
2017-07-24 21:00:00 32.1 21 Norte 31 Noroeste 0 -- -- 22
2017-07-24 20:00:00 33.3 24 Noroeste 35 Norte 0 -- -- 21
2017-07-24 19:00:00 34 21 Norte 37 Norte 0 -- -- 21
2017-07-24 18:00:00 33.9 21 Norte 38 Norte 0 -- -- 22
2017-07-24 17:00:00 33.8 19 Noroeste 37 Noroeste 0 -- -- 21
2017-07-24 16:00:00 32.9 23 Noroeste 38 Noroeste 0 -- -- 24
2017-07-24 15:00:00 32.4 19 Noroeste 35 Noroeste 0 -- -- 25
2017-07-24 14:00:00 31.3 14 Noroeste 37 Noroeste 0 -- -- 26
2017-07-24 13:00:00 28.9 17 Noroeste 29 Noroeste 0 -- -- 34
2017-07-24 12:00:00 26.8 15 Noroeste 26 Noroeste 0 -- -- 39
2017-07-24 11:00:00 24.6 12 Noroeste 23 Norte 0 -- -- 47
2017-07-24 10:00:00 22.3 12 Noroeste 21 Noroeste 0 -- -- 57
2017-07-24 09:00:00 19.9 7 Noroeste 9 Noroeste 0 -- -- 61
2017-07-24 08:00:00 18.4 6 Sudoeste 8 Oeste 0 -- -- 63
2017-07-24 07:00:00 18.4 8 Oeste 12 Oeste 0 -- -- 62
2017-07-24 06:00:00 19 6 Oeste 10 Oeste 0 -- -- 57
2017-07-24 05:00:00 19.8 5 Sudoeste 8 Oeste 0 -- -- 53
2017-07-24 04:00:00 20.4 7 Sudoeste 13 Oeste 0 -- -- 50
2017-07-24 03:00:00 21.3 10 Oeste 12 Oeste 0 -- -- 48
2017-07-24 02:00:00 22 9 Oeste 14 Oeste 0 -- -- 43
2017-07-24 01:00:00 23.8 9 Oeste 18 Oeste 0 -- -- 35
2017-07-24 00:00:00 24.9 9 Oeste 18 Noroeste 0 -- -- 30
2017-07-23 23:00:00 26.7 12 Noroeste 20 Noroeste 0 -- -- 23
2017-07-23 22:00:00 28.4 16 Noroeste 31 Noroeste 0 -- -- 20
2017-07-23 21:00:00 31.2 25 Norte 36 Noroeste 0 -- -- 19
2017-07-23 20:00:00 32.8 24 Noroeste 35 Noroeste 0 -- -- 21
2017-07-23 19:00:00 34.1 17 Noroeste 30 Noroeste 0 -- -- 21
2017-07-23 18:00:00 34.2 16 Oeste 32 Noroeste 0 -- -- 17
2017-07-23 17:00:00 33.5 7 Noroeste 33 Sudoeste 0 -- -- 19
2017-07-23 16:00:00 32.7 6 Nordeste 30 Noroeste 0 -- -- 20
2017-07-23 15:00:00 32 11 Noroeste 26 Oeste 0 -- -- 20
2017-07-23 14:00:00 30.6 9 Oeste 23 Noroeste 0 -- -- 23
2017-07-23 13:00:00 29.4 5 Sudeste 22 Noroeste 0 -- -- 23
2017-07-23 12:00:00 27.9 9 Oeste 15 Noroeste 0 -- -- 31
2017-07-23 11:00:00 25.4 5 Noroeste 10 Noroeste 0 -- -- 41
2017-07-23 10:00:00 22.8 3 Sur 6 Sur 0 -- -- 49
2017-07-23 09:00:00 20.2 4 Sudoeste 6 Sudoeste 0 -- -- 56
2017-07-23 08:00:00 18.4 4 Sudoeste 6 Sur 0 -- -- 63
2017-07-23 07:00:00 16.4 6 Sur 12 Sudoeste 0 -- -- 69
2017-07-23 06:00:00 16.5 9 Sudoeste 13 Oeste 0 -- -- 65
2017-07-23 05:00:00 17.6 11 Oeste 12 Sudoeste 0 -- -- 62
2017-07-23 04:00:00 18.2 9 Sudoeste 10 Sudoeste 0 -- -- 58
2017-07-23 03:00:00 18.9 8 Oeste 15 Oeste 0 -- -- 56
2017-07-23 02:00:00 20 11 Oeste 15 Oeste 0 -- -- 48
2017-07-23 01:00:00 21.3 10 Noroeste 19 Noroeste 0 -- -- 39
2017-07-23 00:00:00 24.2 5 Oeste 12 Noroeste 0 -- -- 29
2017-07-22 23:00:00 25.2 12 Noroeste 19 Norte 0 -- -- 28
2017-07-22 22:00:00 27 17 Norte 27 Norte 0 -- -- 27
2017-07-22 21:00:00 29.7 23 Norte 32 Noroeste 0 -- -- 24
2017-07-22 20:00:00 31.8 5 Oeste 24 Oeste 0 -- -- 20
2017-07-22 19:00:00 32.2 14 Oeste 24 Oeste 0 -- -- 20
2017-07-22 18:00:00 31.9 9 Noroeste 31 Oeste 0 -- -- 21
2017-07-22 17:00:00 31.5 13 Oeste 27 Oeste 0 -- -- 23
2017-07-22 16:00:00 30.8 12 Norte 28 Oeste 0 -- -- 23
2017-07-22 15:00:00 30.7 10 Sudoeste 20 Sudoeste 0 -- -- 24
2017-07-22 14:00:00 28.7 8 Noroeste 21 Oeste 0 -- -- 27
2017-07-22 13:00:00 27.7 6 Sur 20 Sudoeste 0 -- -- 30
2017-07-22 12:00:00 26.2 4 Este 10 Este 0 -- -- 33
2017-07-22 11:00:00 21.7 4 Norte 9 Nordeste 0 -- -- 46
2017-07-22 10:00:00 18.1 3 Sudoeste 9 Oeste 0 -- -- 57
2017-07-22 09:00:00 15.4 6 Noroeste 9 Oeste 0 -- -- 65
2017-07-22 08:00:00 14.1 7 Noroeste 10 Oeste 0 -- -- 67
2017-07-22 07:00:00 14.7 4 Oeste 9 Sudoeste 0 -- -- 66
2017-07-22 06:00:00 14.5 8 Sudoeste 9 Sudoeste 0 -- -- 64
2017-07-22 05:00:00 15 7 Sudoeste 13 Sudoeste 0 -- -- 61
2017-07-22 04:00:00 15.5 10 Sudoeste 15 Oeste 0 -- -- 58
2017-07-22 03:00:00 16.6 11 Oeste 13 Oeste 0 -- -- 53
2017-07-22 02:00:00 17.8 8 Oeste 15 Oeste 0 -- -- 48
2017-07-22 01:00:00 19 10 Noroeste 16 Oeste 0 -- -- 43
2017-07-22 00:00:00 21.1 9 Oeste 14 Oeste 0 -- -- 37